sensor_id;sensor_type;location;lat;lon;timestamp;pressure;altitude;pressure_sealevel;temperature;humidity
60465;BME280;46314;52.392;9.758;2023-01-31T00:01:21;101151.84;;;5.34;84.37
60465;BME280;46314;52.392;9.758;2023-01-31T00:03:52;101152.50;;;5.02;86.10
60465;BME280;46314;52.392;9.758;2023-01-31T00:06:20;101162.31;;;5.15;86.20
60465;BME280;46314;52.392;9.758;2023-01-31T00:08:48;101161.75;;;5.35;85.20
60465;BME280;46314;52.392;9.758;2023-01-31T00:11:16;101162.88;;;5.17;85.86
60465;BME280;46314;52.392;9.758;2023-01-31T00:13:45;101164.81;;;5.16;85.28
60465;BME280;46314;52.392;9.758;2023-01-31T00:16:13;101163.97;;;5.16;85.99
60465;BME280;46314;52.392;9.758;2023-01-31T00:18:40;101167.72;;;5.09;86.10
60465;BME280;46314;52.392;9.758;2023-01-31T00:21:09;101168.34;;;4.78;86.15
60465;BME280;46314;52.392;9.758;2023-01-31T00:23:36;101165.25;;;4.91;86.76
60465;BME280;46314;52.392;9.758;2023-01-31T00:26:11;101167.56;;;5.16;85.82
60465;BME280;46314;52.392;9.758;2023-01-31T00:28:38;101178.94;;;5.25;85.11
60465;BME280;46314;52.392;9.758;2023-01-31T00:31:07;101173.38;;;5.20;84.39
60465;BME280;46314;52.392;9.758;2023-01-31T00:33:34;101166.03;;;5.25;84.35
60465;BME280;46314;52.392;9.758;2023-01-31T00:36:03;101166.06;;;5.08;84.45
60465;BME280;46314;52.392;9.758;2023-01-31T00:38:30;101162.34;;;5.37;82.66
60465;BME280;46314;52.392;9.758;2023-01-31T00:40:57;101167.25;;;5.35;82.32
60465;BME280;46314;52.392;9.758;2023-01-31T00:43:24;101177.25;;;5.41;81.92
60465;BME280;46314;52.392;9.758;2023-01-31T00:45:50;101182.50;;;5.64;81.25
60465;BME280;46314;52.392;9.758;2023-01-31T00:48:18;101186.97;;;5.48;82.29
60465;BME280;46314;52.392;9.758;2023-01-31T00:50:45;101200.88;;;5.59;81.97
60465;BME280;46314;52.392;9.758;2023-01-31T00:53:11;101201.25;;;5.67;82.04
60465;BME280;46314;52.392;9.758;2023-01-31T00:55:38;101203.88;;;5.57;82.39
60465;BME280;46314;52.392;9.758;2023-01-31T00:58:04;101195.47;;;5.47;83.96
60465;BME280;46314;52.392;9.758;2023-01-31T01:00:31;101195.53;;;5.30;84.88
60465;BME280;46314;52.392;9.758;2023-01-31T01:02:57;101194.31;;;5.21;85.68
60465;BME280;46314;52.392;9.758;2023-01-31T01:05:25;101200.72;;;5.26;85.35
60465;BME280;46314;52.392;9.758;2023-01-31T01:07:52;101203.69;;;5.42;85.77
60465;BME280;46314;52.392;9.758;2023-01-31T01:10:18;101201.50;;;5.66;85.14
60465;BME280;46314;52.392;9.758;2023-01-31T01:12:45;101208.91;;;5.43;86.30
60465;BME280;46314;52.392;9.758;2023-01-31T01:15:11;101204.53;;;5.25;86.94
60465;BME280;46314;52.392;9.758;2023-01-31T01:17:38;101214.22;;;5.11;88.51
60465;BME280;46314;52.392;9.758;2023-01-31T01:20:06;101225.72;;;5.25;87.90
60465;BME280;46314;52.392;9.758;2023-01-31T01:22:34;101223.88;;;5.13;88.74
60465;BME280;46314;52.392;9.758;2023-01-31T01:25:00;101234.13;;;5.01;88.96
60465;BME280;46314;52.392;9.758;2023-01-31T01:27:27;101224.09;;;5.46;87.19
60465;BME280;46314;52.392;9.758;2023-01-31T01:29:53;101222.63;;;5.38;86.72
60465;BME280;46314;52.392;9.758;2023-01-31T01:32:20;101234.94;;;5.19;87.07
60465;BME280;46314;52.392;9.758;2023-01-31T01:34:47;101227.88;;;5.23;87.96
60465;BME280;46314;52.392;9.758;2023-01-31T01:37:13;101231.03;;;5.31;86.77
60465;BME280;46314;52.392;9.758;2023-01-31T01:39:41;101235.03;;;5.24;87.35
60465;BME280;46314;52.392;9.758;2023-01-31T01:42:13;101231.91;;;4.98;88.03
60465;BME280;46314;52.392;9.758;2023-01-31T01:44:46;101229.97;;;5.16;87.63
60465;BME280;46314;52.392;9.758;2023-01-31T01:47:25;101247.53;;;5.15;87.40
60465;BME280;46314;52.392;9.758;2023-01-31T01:49:58;101242.31;;;4.96;87.68
60465;BME280;46314;52.392;9.758;2023-01-31T01:52:29;101253.13;;;5.20;87.21
60465;BME280;46314;52.392;9.758;2023-01-31T01:55:03;101250.63;;;5.18;86.94
60465;BME280;46314;52.392;9.758;2023-01-31T01:57:34;101260.53;;;5.02;87.77
60465;BME280;46314;52.392;9.758;2023-01-31T02:00:08;101265.78;;;5.04;87.68
60465;BME280;46314;52.392;9.758;2023-01-31T02:02:35;101266.03;;;5.02;87.48
60465;BME280;46314;52.392;9.758;2023-01-31T02:05:03;101271.13;;;5.10;87.93
60465;BME280;46314;52.392;9.758;2023-01-31T02:07:29;101263.38;;;5.24;86.70
60465;BME280;46314;52.392;9.758;2023-01-31T02:10:02;101267.53;;;5.27;86.21
60465;BME280;46314;52.392;9.758;2023-01-31T02:12:31;101261.88;;;5.34;86.01
60465;BME280;46314;52.392;9.758;2023-01-31T02:14:58;101264.03;;;5.31;86.23
60465;BME280;46314;52.392;9.758;2023-01-31T02:17:25;101257.94;;;4.96;88.23
60465;BME280;46314;52.392;9.758;2023-01-31T02:20:02;101257.94;;;4.96;87.77
60465;BME280;46314;52.392;9.758;2023-01-31T02:22:38;101253.63;;;5.00;87.30
60465;BME280;46314;52.392;9.758;2023-01-31T02:25:30;101260.38;;;5.09;87.70
60465;BME280;46314;52.392;9.758;2023-01-31T02:31:29;101266.38;;;5.23;87.35
60465;BME280;46314;52.392;9.758;2023-01-31T02:34:06;101263.38;;;5.24;87.65
60465;BME280;46314;52.392;9.758;2023-01-31T02:36:41;101278.19;;;5.06;88.87
60465;BME280;46314;52.392;9.758;2023-01-31T02:39:17;101278.88;;;5.30;87.35
60465;BME280;46314;52.392;9.758;2023-01-31T02:41:50;101279.97;;;5.29;88.01
60465;BME280;46314;52.392;9.758;2023-01-31T02:44:25;101271.94;;;5.45;86.51
60465;BME280;46314;52.392;9.758;2023-01-31T02:46:56;101272.28;;;4.98;89.82
60465;BME280;46314;52.392;9.758;2023-01-31T02:49:31;101279.69;;;5.48;86.63
60465;BME280;46314;52.392;9.758;2023-01-31T02:52:11;101281.69;;;5.36;87.39
60465;BME280;46314;52.392;9.758;2023-01-31T02:54:39;101284.03;;;4.93;90.26
60465;BME280;46314;52.392;9.758;2023-01-31T02:57:06;101281.13;;;5.50;87.74
60465;BME280;46314;52.392;9.758;2023-01-31T02:59:32;101294.78;;;5.45;87.40
60465;BME280;46314;52.392;9.758;2023-01-31T03:02:01;101284.53;;;5.58;87.81
60465;BME280;46314;52.392;9.758;2023-01-31T03:04:32;101291.97;;;5.23;89.64
60465;BME280;46314;52.392;9.758;2023-01-31T03:07:00;101273.19;;;5.37;90.99
60465;BME280;46314;52.392;9.758;2023-01-31T03:09:36;101277.78;;;5.31;89.07
60465;BME280;46314;52.392;9.758;2023-01-31T03:12:29;101286.72;;;5.22;90.88
60465;BME280;46314;52.392;9.758;2023-01-31T03:15:08;101288.88;;;5.37;89.02
60465;BME280;46314;52.392;9.758;2023-01-31T03:17:50;101274.28;;;5.36;88.12
60465;BME280;46314;52.392;9.758;2023-01-31T03:20:28;101279.53;;;5.38;88.86
60465;BME280;46314;52.392;9.758;2023-01-31T03:22:57;101275.13;;;5.20;88.76
60465;BME280;46314;52.392;9.758;2023-01-31T03:25:27;101279.88;;;5.24;88.02
60465;BME280;46314;52.392;9.758;2023-01-31T03:27:59;101274.38;;;5.24;88.41
60465;BME280;46314;52.392;9.758;2023-01-31T03:30:34;101260.44;;;4.97;88.96
60465;BME280;46314;52.392;9.758;2023-01-31T03:33:07;101261.47;;;5.25;86.96
60465;BME280;46314;52.392;9.758;2023-01-31T03:35:40;101271.72;;;5.12;88.10
60465;BME280;46314;52.392;9.758;2023-01-31T03:38:12;101248.81;;;5.07;87.55
60465;BME280;46314;52.392;9.758;2023-01-31T03:40:44;101246.97;;;5.29;86.88
60465;BME280;46314;52.392;9.758;2023-01-31T03:43:18;101245.63;;;5.15;86.37
60465;BME280;46314;52.392;9.758;2023-01-31T03:45:50;101247.72;;;5.08;86.37
60465;BME280;46314;52.392;9.758;2023-01-31T03:48:21;101242.69;;;5.22;86.25
60465;BME280;46314;52.392;9.758;2023-01-31T03:50:55;101245.13;;;5.01;86.39
60465;BME280;46314;52.392;9.758;2023-01-31T03:53:28;101249.88;;;5.06;86.66
60465;BME280;46314;52.392;9.758;2023-01-31T03:56:00;101240.13;;;4.81;86.58
60465;BME280;46314;52.392;9.758;2023-01-31T03:58:33;101238.72;;;5.12;85.79
60465;BME280;46314;52.392;9.758;2023-01-31T04:01:04;101239.59;;;4.50;88.15
60465;BME280;46314;52.392;9.758;2023-01-31T04:03:36;101235.97;;;4.96;86.62
60465;BME280;46314;52.392;9.758;2023-01-31T04:06:06;101239.13;;;5.04;85.25
60465;BME280;46314;52.392;9.758;2023-01-31T04:08:33;101233.78;;;5.31;84.56
60465;BME280;46314;52.392;9.758;2023-01-31T04:11:02;101227.88;;;4.89;85.59
60465;BME280;46314;52.392;9.758;2023-01-31T04:13:29;101234.09;;;4.67;86.94
60465;BME280;46314;52.392;9.758;2023-01-31T04:15:56;101241.69;;;4.60;88.17
60465;BME280;46314;52.392;9.758;2023-01-31T04:18:22;101238.44;;;4.63;86.86
60465;BME280;46314;52.392;9.758;2023-01-31T04:20:49;101232.38;;;4.61;87.48
60465;BME280;46314;52.392;9.758;2023-01-31T04:23:17;101238.38;;;4.29;88.31
60465;BME280;46314;52.392;9.758;2023-01-31T04:25:43;101247.19;;;4.94;86.46
60465;BME280;46314;52.392;9.758;2023-01-31T04:28:10;101249.19;;;4.36;88.25
60465;BME280;46314;52.392;9.758;2023-01-31T04:30:36;101246.31;;;4.43;88.30
60465;BME280;46314;52.392;9.758;2023-01-31T04:33:03;101257.19;;;4.66;86.38
60465;BME280;46314;52.392;9.758;2023-01-31T04:35:29;101259.22;;;4.42;86.84
60465;BME280;46314;52.392;9.758;2023-01-31T04:37:56;101250.31;;;4.52;87.35
60465;BME280;46314;52.392;9.758;2023-01-31T04:40:24;101260.19;;;4.82;85.06
60465;BME280;46314;52.392;9.758;2023-01-31T04:42:50;101245.84;;;4.34;86.82
60465;BME280;46314;52.392;9.758;2023-01-31T04:45:17;101247.84;;;4.50;86.50
60465;BME280;46314;52.392;9.758;2023-01-31T04:47:44;101258.28;;;4.82;85.46
60465;BME280;46314;52.392;9.758;2023-01-31T04:50:10;101257.50;;;4.24;86.84
60465;BME280;46314;52.392;9.758;2023-01-31T04:52:37;101261.88;;;4.83;85.26
60465;BME280;46314;52.392;9.758;2023-01-31T04:55:04;101259.13;;;5.17;83.35
60465;BME280;46314;52.392;9.758;2023-01-31T04:57:32;101262.28;;;5.42;82.40
60465;BME280;46314;52.392;9.758;2023-01-31T04:59:58;101261.28;;;4.81;84.00
60465;BME280;46314;52.392;9.758;2023-01-31T05:02:25;101262.19;;;5.20;83.71
60465;BME280;46314;52.392;9.758;2023-01-31T05:04:51;101253.22;;;4.91;83.71
60465;BME280;46314;52.392;9.758;2023-01-31T05:07:18;101256.53;;;4.93;83.58
60465;BME280;46314;52.392;9.758;2023-01-31T05:09:44;101253.16;;;4.57;85.42
60465;BME280;46314;52.392;9.758;2023-01-31T05:12:11;101255.03;;;4.68;85.70
60465;BME280;46314;52.392;9.758;2023-01-31T05:14:38;101258.81;;;4.96;82.95
60465;BME280;46314;52.392;9.758;2023-01-31T05:17:05;101256.53;;;4.93;83.75
60465;BME280;46314;52.392;9.758;2023-01-31T05:19:32;101256.53;;;5.27;81.29
60465;BME280;46314;52.392;9.758;2023-01-31T05:21:58;101256.47;;;5.05;81.59
60465;BME280;46314;52.392;9.758;2023-01-31T05:24:26;101258.09;;;4.89;82.04
60465;BME280;46314;52.392;9.758;2023-01-31T05:26:53;101251.19;;;5.37;81.06
60465;BME280;46314;52.392;9.758;2023-01-31T05:29:20;101246.78;;;5.02;81.13
60465;BME280;46314;52.392;9.758;2023-01-31T05:31:50;101239.56;;;4.96;82.45
60465;BME280;46314;52.392;9.758;2023-01-31T05:34:17;101230.03;;;4.87;82.78
60465;BME280;46314;52.392;9.758;2023-01-31T05:36:43;101237.28;;;5.10;82.09
60465;BME280;46314;52.392;9.758;2023-01-31T05:39:10;101239.84;;;5.50;80.10
60465;BME280;46314;52.392;9.758;2023-01-31T05:41:36;101244.22;;;5.12;81.88
60465;BME280;46314;52.392;9.758;2023-01-31T05:44:03;101249.81;;;5.18;81.02
60465;BME280;46314;52.392;9.758;2023-01-31T05:46:30;101241.47;;;4.96;82.18
60465;BME280;46314;52.392;9.758;2023-01-31T05:48:58;101242.03;;;5.15;81.52
60465;BME280;46314;52.392;9.758;2023-01-31T05:51:24;101240.34;;;5.47;80.01
60465;BME280;46314;52.392;9.758;2023-01-31T05:53:51;101236.16;;;5.84;79.24
60465;BME280;46314;52.392;9.758;2023-01-31T05:56:17;101240.09;;;5.49;80.63
60465;BME280;46314;52.392;9.758;2023-01-31T05:58:44;101227.00;;;5.39;80.01
60465;BME280;46314;52.392;9.758;2023-01-31T06:01:10;101221.41;;;5.51;80.90
60465;BME280;46314;52.392;9.758;2023-01-31T06:03:36;101226.84;;;5.68;80.87
60465;BME280;46314;52.392;9.758;2023-01-31T06:06:05;101226.59;;;5.69;79.95
60465;BME280;46314;52.392;9.758;2023-01-31T06:08:31;101218.88;;;5.88;79.80
60465;BME280;46314;52.392;9.758;2023-01-31T06:11:00;101219.19;;;5.70;78.20
60465;BME280;46314;52.392;9.758;2023-01-31T06:13:26;101220.84;;;5.71;78.66
60465;BME280;46314;52.392;9.758;2023-01-31T06:15:53;101216.13;;;5.66;80.36
60465;BME280;46314;52.392;9.758;2023-01-31T06:18:19;101226.38;;;6.15;77.59
60465;BME280;46314;52.392;9.758;2023-01-31T06:20:46;101227.88;;;6.01;78.91
60465;BME280;46314;52.392;9.758;2023-01-31T06:23:13;101214.28;;;5.33;80.50
60465;BME280;46314;52.392;9.758;2023-01-31T06:25:40;101214.97;;;5.84;79.41
60465;BME280;46314;52.392;9.758;2023-01-31T06:28:06;101212.53;;;6.10;77.43
60465;BME280;46314;52.392;9.758;2023-01-31T06:30:33;101211.00;;;6.19;76.99
60465;BME280;46314;52.392;9.758;2023-01-31T06:32:59;101205.00;;;6.00;77.55
60465;BME280;46314;52.392;9.758;2023-01-31T06:35:26;101210.94;;;5.92;77.42
60465;BME280;46314;52.392;9.758;2023-01-31T06:37:53;101211.88;;;6.52;75.87
60465;BME280;46314;52.392;9.758;2023-01-31T06:40:21;101206.44;;;5.64;78.39
60465;BME280;46314;52.392;9.758;2023-01-31T06:42:48;101206.16;;;5.82;78.56
60465;BME280;46314;52.392;9.758;2023-01-31T06:45:14;101195.63;;;5.96;79.04
60465;BME280;46314;52.392;9.758;2023-01-31T06:47:43;101191.13;;;6.17;77.06
60465;BME280;46314;52.392;9.758;2023-01-31T06:50:11;101181.94;;;6.06;77.60
60465;BME280;46314;52.392;9.758;2023-01-31T06:52:38;101197.66;;;6.60;75.63
60465;BME280;46314;52.392;9.758;2023-01-31T06:55:05;101191.50;;;6.26;76.58
60465;BME280;46314;52.392;9.758;2023-01-31T06:57:33;101184.63;;;5.79;78.52
60465;BME280;46314;52.392;9.758;2023-01-31T07:00:00;101174.59;;;6.12;77.31
60465;BME280;46314;52.392;9.758;2023-01-31T07:02:27;101183.53;;;5.58;78.60
60465;BME280;46314;52.392;9.758;2023-01-31T07:04:53;101182.31;;;5.93;78.62
60465;BME280;46314;52.392;9.758;2023-01-31T07:07:20;101170.91;;;5.62;79.66
60465;BME280;46314;52.392;9.758;2023-01-31T07:09:47;101175.41;;;6.13;77.78
60465;BME280;46314;52.392;9.758;2023-01-31T07:12:13;101165.03;;;5.76;79.59
60465;BME280;46314;52.392;9.758;2023-01-31T07:14:41;101164.81;;;6.27;77.71
60465;BME280;46314;52.392;9.758;2023-01-31T07:17:07;101153.66;;;6.43;77.46
60465;BME280;46314;52.392;9.758;2023-01-31T07:19:34;101142.91;;;6.42;77.88
60465;BME280;46314;52.392;9.758;2023-01-31T07:22:00;101136.03;;;6.12;79.13
60465;BME280;46314;52.392;9.758;2023-01-31T07:24:27;101127.84;;;6.22;78.83
60465;BME280;46314;52.392;9.758;2023-01-31T07:26:53;101126.41;;;6.15;79.51
60465;BME280;46314;52.392;9.758;2023-01-31T07:29:20;101113.25;;;6.22;79.57
60465;BME280;46314;52.392;9.758;2023-01-31T07:31:47;101124.34;;;6.00;79.44
60465;BME280;46314;52.392;9.758;2023-01-31T07:34:14;101116.50;;;6.19;79.75
60465;BME280;46314;52.392;9.758;2023-01-31T07:36:40;101111.38;;;6.28;79.60
60465;BME280;46314;52.392;9.758;2023-01-31T07:39:07;101109.06;;;5.92;79.77
60465;BME280;46314;52.392;9.758;2023-01-31T07:41:33;101104.63;;;6.13;80.05
60465;BME280;46314;52.392;9.758;2023-01-31T07:44:00;101093.66;;;6.18;80.00
60465;BME280;46314;52.392;9.758;2023-01-31T07:46:26;101099.63;;;6.75;77.12
60465;BME280;46314;52.392;9.758;2023-01-31T07:48:54;101089.75;;;6.84;77.19
60465;BME280;46314;52.392;9.758;2023-01-31T07:51:20;101101.03;;;6.45;78.09
60465;BME280;46314;52.392;9.758;2023-01-31T07:53:47;101095.41;;;6.62;78.74
60465;BME280;46314;52.392;9.758;2023-01-31T07:56:16;101097.38;;;5.80;80.47
60465;BME280;46314;52.392;9.758;2023-01-31T07:58:43;101104.47;;;6.25;79.75
60465;BME280;46314;52.392;9.758;2023-01-31T08:01:13;101090.25;;;6.38;77.99
60465;BME280;46314;52.392;9.758;2023-01-31T08:03:41;101091.53;;;6.58;78.72
60465;BME280;46314;52.392;9.758;2023-01-31T08:06:10;101082.56;;;6.40;78.74
60465;BME280;46314;52.392;9.758;2023-01-31T08:08:38;101078.25;;;6.97;77.03
60465;BME280;46314;52.392;9.758;2023-01-31T08:11:07;101070.28;;;7.01;76.80
60465;BME280;46314;52.392;9.758;2023-01-31T08:13:35;101065.38;;;6.66;78.10
60465;BME280;46314;52.392;9.758;2023-01-31T08:16:03;101058.66;;;6.51;77.70
60465;BME280;46314;52.392;9.758;2023-01-31T08:18:30;101060.66;;;6.23;79.75
60465;BME280;46314;52.392;9.758;2023-01-31T08:20:57;101058.97;;;6.55;77.96
60465;BME280;46314;52.392;9.758;2023-01-31T08:23:25;101056.25;;;7.08;75.87
60465;BME280;46314;52.392;9.758;2023-01-31T08:25:58;101050.47;;;7.09;75.78
60465;BME280;46314;52.392;9.758;2023-01-31T08:28:25;101050.09;;;6.90;75.96
60465;BME280;46314;52.392;9.758;2023-01-31T08:30:51;101041.47;;;6.76;77.47
60465;BME280;46314;52.392;9.758;2023-01-31T08:33:35;101046.97;;;6.34;78.56
60465;BME280;46314;52.392;9.758;2023-01-31T08:36:07;101045.44;;;6.53;78.47
60465;BME280;46314;52.392;9.758;2023-01-31T08:38:35;101042.56;;;6.38;77.31
60465;BME280;46314;52.392;9.758;2023-01-31T08:41:02;101036.47;;;7.26;76.22
60465;BME280;46314;52.392;9.758;2023-01-31T08:43:28;101029.28;;;7.20;75.04
60465;BME280;46314;52.392;9.758;2023-01-31T08:45:54;101018.50;;;7.13;75.87
60465;BME280;46314;52.392;9.758;2023-01-31T08:48:21;101012.78;;;7.46;74.57
60465;BME280;46314;52.392;9.758;2023-01-31T08:50:47;101014.34;;;7.11;74.60
60465;BME280;46314;52.392;9.758;2023-01-31T08:53:14;101020.56;;;7.54;74.67
60465;BME280;46314;52.392;9.758;2023-01-31T08:55:42;101014.81;;;7.81;73.50
60465;BME280;46314;52.392;9.758;2023-01-31T08:58:08;100999.56;;;6.74;77.11
60465;BME280;46314;52.392;9.758;2023-01-31T09:00:35;100997.31;;;6.71;76.30
60465;BME280;46314;52.392;9.758;2023-01-31T09:03:01;100996.22;;;7.30;75.42
60465;BME280;46314;52.392;9.758;2023-01-31T09:05:28;100991.16;;;7.07;74.90
60465;BME280;46314;52.392;9.758;2023-01-31T09:07:57;100985.56;;;6.86;75.54
60465;BME280;46314;52.392;9.758;2023-01-31T09:10:24;100992.94;;;6.70;77.41
60465;BME280;46314;52.392;9.758;2023-01-31T09:12:52;100984.94;;;6.69;77.32
60465;BME280;46314;52.392;9.758;2023-01-31T09:15:18;100989.84;;;7.19;75.13
60465;BME280;46314;52.392;9.758;2023-01-31T09:17:45;100987.59;;;7.11;74.63
60465;BME280;46314;52.392;9.758;2023-01-31T09:20:12;100994.97;;;6.95;75.87
60465;BME280;46314;52.392;9.758;2023-01-31T09:22:38;100994.88;;;6.75;75.80
60465;BME280;46314;52.392;9.758;2023-01-31T09:25:06;100996.84;;;6.37;78.20
60465;BME280;46314;52.392;9.758;2023-01-31T09:27:34;101003.66;;;6.29;78.04
60465;BME280;46314;52.392;9.758;2023-01-31T09:30:03;101003.81;;;6.50;77.95
60465;BME280;46314;52.392;9.758;2023-01-31T09:32:30;101004.53;;;6.35;78.72
60465;BME280;46314;52.392;9.758;2023-01-31T09:34:57;100999.38;;;5.79;81.38
60465;BME280;46314;52.392;9.758;2023-01-31T09:37:23;100986.59;;;5.95;84.59
60465;BME280;46314;52.392;9.758;2023-01-31T09:39:50;100983.97;;;5.50;86.35
60465;BME280;46314;52.392;9.758;2023-01-31T09:42:20;100977.00;;;5.70;86.75
60465;BME280;46314;52.392;9.758;2023-01-31T09:44:57;100970.97;;;6.00;86.99
60465;BME280;46314;52.392;9.758;2023-01-31T09:47:26;100976.91;;;6.19;87.33
60465;BME280;46314;52.392;9.758;2023-01-31T09:49:57;100967.78;;;5.86;87.78
60465;BME280;46314;52.392;9.758;2023-01-31T09:52:26;100951.78;;;6.11;87.41
60465;BME280;46314;52.392;9.758;2023-01-31T09:54:54;100939.00;;;5.99;88.99
60465;BME280;46314;52.392;9.758;2023-01-31T09:57:26;100933.38;;;6.21;88.47
60465;BME280;46314;52.392;9.758;2023-01-31T10:00:06;100945.41;;;6.10;88.23
60465;BME280;46314;52.392;9.758;2023-01-31T10:02:48;100955.81;;;5.71;88.54
60465;BME280;46314;52.392;9.758;2023-01-31T10:05:26;100946.13;;;5.95;89.63
60465;BME280;46314;52.392;9.758;2023-01-31T10:08:04;100933.44;;;5.62;90.21
60465;BME280;46314;52.392;9.758;2023-01-31T10:10:34;100941.94;;;5.93;88.04
60465;BME280;46314;52.392;9.758;2023-01-31T10:13:05;100931.41;;;6.17;86.76
60465;BME280;46314;52.392;9.758;2023-01-31T10:15:38;100944.69;;;5.93;86.71
60465;BME280;46314;52.392;9.758;2023-01-31T10:18:11;100933.31;;;5.79;86.76
60465;BME280;46314;52.392;9.758;2023-01-31T10:20:43;100928.78;;;6.32;84.59
60465;BME280;46314;52.392;9.758;2023-01-31T10:23:15;100908.75;;;6.52;83.42
60465;BME280;46314;52.392;9.758;2023-01-31T10:25:54;100907.09;;;6.46;83.44
60465;BME280;46314;52.392;9.758;2023-01-31T10:28:24;100901.88;;;6.50;82.96
60465;BME280;46314;52.392;9.758;2023-01-31T10:30:57;100903.84;;;6.12;84.87
60465;BME280;46314;52.392;9.758;2023-01-31T10:33:32;100903.84;;;6.12;85.77
60465;BME280;46314;52.392;9.758;2023-01-31T10:36:03;100892.47;;;5.98;85.07
60465;BME280;46314;52.392;9.758;2023-01-31T10:38:33;100889.47;;;6.57;83.64
60465;BME280;46314;52.392;9.758;2023-01-31T10:41:10;100883.63;;;6.43;84.01
60465;BME280;46314;52.392;9.758;2023-01-31T10:43:43;100879.53;;;6.46;84.17
60465;BME280;46314;52.392;9.758;2023-01-31T10:46:14;100873.28;;;6.13;85.13
60465;BME280;46314;52.392;9.758;2023-01-31T10:48:43;100869.31;;;6.41;83.87
60465;BME280;46314;52.392;9.758;2023-01-31T10:51:34;100859.28;;;6.20;84.87
60465;BME280;46314;52.392;9.758;2023-01-31T10:54:15;100855.91;;;6.66;83.58
60465;BME280;46314;52.392;9.758;2023-01-31T10:56:46;100834.72;;;6.13;84.92
60465;BME280;46314;52.392;9.758;2023-01-31T10:59:20;100840.38;;;6.39;84.16
60465;BME280;46314;52.392;9.758;2023-01-31T11:01:49;100832.81;;;6.09;86.37
60465;BME280;46314;52.392;9.758;2023-01-31T11:04:24;100843.47;;;6.53;84.26
60465;BME280;46314;52.392;9.758;2023-01-31T11:06:52;100834.03;;;6.43;85.48
60465;BME280;46314;52.392;9.758;2023-01-31T11:09:20;100822.88;;;6.81;82.58
60465;BME280;46314;52.392;9.758;2023-01-31T11:11:53;100819.25;;;6.65;82.26
60465;BME280;46314;52.392;9.758;2023-01-31T11:14:21;100826.16;;;6.73;84.06
60465;BME280;46314;52.392;9.758;2023-01-31T11:16:48;100814.31;;;6.88;82.33
60465;BME280;46314;52.392;9.758;2023-01-31T11:19:18;100814.63;;;7.07;81.29
60465;BME280;46314;52.392;9.758;2023-01-31T11:21:50;100801.13;;;6.90;81.72
60465;BME280;46314;52.392;9.758;2023-01-31T11:24:21;100811.97;;;6.33;85.57
60465;BME280;46314;52.392;9.758;2023-01-31T11:26:54;100808.97;;;6.45;84.39
60465;BME280;46314;52.392;9.758;2023-01-31T11:29:25;100804.06;;;6.62;83.55
60465;BME280;46314;52.392;9.758;2023-01-31T11:31:54;100809.63;;;6.73;83.46
60465;BME280;46314;52.392;9.758;2023-01-31T11:34:22;100795.25;;;6.55;83.93
60465;BME280;46314;52.392;9.758;2023-01-31T11:36:51;100795.31;;;7.01;81.69
60465;BME280;46314;52.392;9.758;2023-01-31T11:39:29;100795.22;;;6.50;84.43
60465;BME280;46314;52.392;9.758;2023-01-31T11:41:56;100790.31;;;6.68;83.43
60465;BME280;46314;52.392;9.758;2023-01-31T11:44:23;100783.41;;;6.55;85.02
60465;BME280;46314;52.392;9.758;2023-01-31T11:46:51;100781.47;;;6.60;83.31
60465;BME280;46314;52.392;9.758;2023-01-31T11:49:27;100771.50;;;6.39;84.63
60465;BME280;46314;52.392;9.758;2023-01-31T11:51:57;100765.78;;;6.66;83.72
60465;BME280;46314;52.392;9.758;2023-01-31T11:54:26;100769.94;;;6.94;83.10
60465;BME280;46314;52.392;9.758;2023-01-31T11:56:53;100769.88;;;6.48;84.37
60465;BME280;46314;52.392;9.758;2023-01-31T11:59:24;100751.50;;;6.95;83.20
60465;BME280;46314;52.392;9.758;2023-01-31T12:01:53;100745.97;;;6.85;83.91
60465;BME280;46314;52.392;9.758;2023-01-31T12:04:23;100755.22;;;6.32;85.40
60465;BME280;46314;52.392;9.758;2023-01-31T12:06:58;100740.63;;;6.27;86.20
60465;BME280;46314;52.392;9.758;2023-01-31T12:09:27;100741.25;;;6.85;84.56
60465;BME280;46314;52.392;9.758;2023-01-31T12:11:55;100728.03;;;6.87;83.64
60465;BME280;46314;52.392;9.758;2023-01-31T12:14:23;100726.41;;;6.86;82.99
60465;BME280;46314;52.392;9.758;2023-01-31T12:16:53;100728.03;;;6.61;84.67
60465;BME280;46314;52.392;9.758;2023-01-31T12:19:30;100746.16;;;6.47;84.19
60465;BME280;46314;52.392;9.758;2023-01-31T12:22:05;100729.69;;;6.88;83.04
60465;BME280;46314;52.392;9.758;2023-01-31T12:24:44;100725.25;;;6.72;84.57
60465;BME280;46314;52.392;9.758;2023-01-31T12:27:23;100723.56;;;6.45;84.58
60465;BME280;46314;52.392;9.758;2023-01-31T12:30:00;100720.31;;;6.79;83.99
60465;BME280;46314;52.392;9.758;2023-01-31T12:32:44;100722.72;;;6.39;86.40
60465;BME280;46314;52.392;9.758;2023-01-31T12:35:23;100718.09;;;6.60;85.36
60465;BME280;46314;52.392;9.758;2023-01-31T12:38:00;100733.50;;;6.46;86.00
60465;BME280;46314;52.392;9.758;2023-01-31T12:40:36;100736.28;;;6.72;84.79
60465;BME280;46314;52.392;9.758;2023-01-31T12:43:09;100730.09;;;6.18;87.53
60465;BME280;46314;52.392;9.758;2023-01-31T12:45:52;100724.72;;;6.75;84.81
60465;BME280;46314;52.392;9.758;2023-01-31T12:48:42;100728.00;;;6.56;85.57
60465;BME280;46314;52.392;9.758;2023-01-31T12:51:21;100721.66;;;6.56;86.20
60465;BME280;46314;52.392;9.758;2023-01-31T12:54:01;100726.50;;;6.07;90.86
60465;BME280;46314;52.392;9.758;2023-01-31T12:56:46;100732.91;;;6.34;90.50
60465;BME280;46314;52.392;9.758;2023-01-31T12:59:36;100742.47;;;6.05;92.46
60465;BME280;46314;52.392;9.758;2023-01-31T13:02:15;100745.50;;;6.09;93.77
60465;BME280;46314;52.392;9.758;2023-01-31T13:04:47;100736.09;;;6.05;92.49
60465;BME280;46314;52.392;9.758;2023-01-31T13:07:18;100733.69;;;6.19;94.10
60465;BME280;46314;52.392;9.758;2023-01-31T13:09:50;100742.75;;;6.09;96.18
60465;BME280;46314;52.392;9.758;2023-01-31T13:12:19;100739.81;;;5.78;96.63
60465;BME280;46314;52.392;9.758;2023-01-31T13:14:48;100738.56;;;5.96;98.43
60465;BME280;46314;52.392;9.758;2023-01-31T13:17:20;100736.69;;;6.07;97.34